createdAt,value
2018-10-09T00:01:42.750Z,5.78
2018-10-09T00:03:39.442Z,5.84
2018-10-09T00:05:29.814Z,5.79
2018-10-09T00:07:09.822Z,5.73
2018-10-09T00:08:48.925Z,5.73
2018-10-09T00:10:26.758Z,5.76
2018-10-09T00:12:02.125Z,5.74
2018-10-09T00:13:45.558Z,5.79
2018-10-09T00:15:26.271Z,5.76
2018-10-09T00:17:01.842Z,5.71
2018-10-09T00:18:37.963Z,5.74
2018-10-09T00:20:18.062Z,5.75
2018-10-09T00:21:57.387Z,5.71
2018-10-09T00:23:33.327Z,5.65
2018-10-09T00:25:10.508Z,5.62
2018-10-09T00:26:47.568Z,5.55
2018-10-09T00:28:27.452Z,5.54
2018-10-09T00:30:04.531Z,5.55
2018-10-09T00:31:40.141Z,5.55
2018-10-09T00:33:16.372Z,5.62
2018-10-09T00:34:55.316Z,5.62
2018-10-09T00:36:36.599Z,5.60
2018-10-09T00:38:14.520Z,5.66
2018-10-09T00:39:51.980Z,5.66
2018-10-09T00:41:34.758Z,5.59
2018-10-09T00:48:44.103Z,5.34
2018-10-09T00:50:21.831Z,5.32
2018-10-09T00:51:57.898Z,5.55
2018-10-09T00:53:38.594Z,5.76
2018-10-09T00:55:14.634Z,5.87
2018-10-09T00:56:56.059Z,5.92
2018-10-09T00:58:48.426Z,6.03
2018-10-09T01:00:29.389Z,6.13
2018-10-09T01:02:07.786Z,6.22
2018-10-09T01:06:14.181Z,6.54
2018-10-09T01:07:51.523Z,6.49
2018-10-09T01:09:27.463Z,6.47
2018-10-09T01:11:05.259Z,6.44
2018-10-09T01:12:43.565Z,6.42
2018-10-09T01:14:18.925Z,6.43
2018-10-09T01:15:58.967Z,6.39
2018-10-09T01:17:34.470Z,6.37
2018-10-09T01:19:09.993Z,6.31
2018-10-09T01:20:56.119Z,6.31
2018-10-09T01:22:32.886Z,6.27
2018-10-09T01:24:17.313Z,6.27
2018-10-09T01:25:54.807Z,6.30
2018-10-09T01:27:31.630Z,6.26
2018-10-09T01:29:09.457Z,6.24
2018-10-09T01:30:44.870Z,6.29
2018-10-09T01:32:23.782Z,6.24
2018-10-09T01:33:59.419Z,6.24
2018-10-09T01:35:40.752Z,6.30
2018-10-09T01:37:23.378Z,6.31
2018-10-09T01:39:00.069Z,6.32
2018-10-09T01:40:36.303Z,6.37
2018-10-09T01:42:15.327Z,6.30
2018-10-09T01:43:52.422Z,6.38
2018-10-09T01:45:29.561Z,6.40
2018-10-09T01:47:05.149Z,6.36
2018-10-09T01:48:40.906Z,6.32
2018-10-09T01:50:16.198Z,6.26
2018-10-09T01:51:51.178Z,6.23
2018-10-09T01:53:27.169Z,6.21
2018-10-09T01:55:02.468Z,6.18
2018-10-09T01:56:40.497Z,6.08
2018-10-09T01:58:16.366Z,6.15
2018-10-09T01:59:51.925Z,6.19
2018-10-09T02:01:29.423Z,6.22
2018-10-09T02:03:10.845Z,6.20
2018-10-09T02:04:46.870Z,6.11
2018-10-09T02:06:26.157Z,6.07
2018-10-09T02:08:05.999Z,6.18
2018-10-09T02:09:41.890Z,6.20
2018-10-09T02:11:25.085Z,6.14
2018-10-09T02:13:00.357Z,6.10
2018-10-09T02:14:36.227Z,5.97
2018-10-09T02:16:12.810Z,5.95
2018-10-09T02:17:51.747Z,5.94
2018-10-09T02:19:26.971Z,5.87
2018-10-09T02:21:02.896Z,5.84
2018-10-09T02:22:39.623Z,5.82
2018-10-09T02:24:16.903Z,5.80
2018-10-09T02:25:54.692Z,5.76
2018-10-09T02:27:31.838Z,5.72
2018-10-09T02:29:08.544Z,5.70
2018-10-09T02:30:44.587Z,5.68
2018-10-09T02:32:26.199Z,5.67
2018-10-09T02:34:02.654Z,5.73
2018-10-09T02:35:44.194Z,5.72
2018-10-09T02:37:19.854Z,5.72
2018-10-09T02:38:56.308Z,5.74
2018-10-09T02:40:33.326Z,5.77
2018-10-09T02:42:12.302Z,5.85
2018-10-09T02:43:47.977Z,5.82
2018-10-09T02:45:25.903Z,5.80
2018-10-09T02:47:06.231Z,5.85
2018-10-09T02:48:44.055Z,5.89
2018-10-09T02:50:19.573Z,5.84
2018-10-09T02:51:55.736Z,5.82
2018-10-09T02:53:48.959Z,5.74
2018-10-09T02:55:29.611Z,5.67
2018-10-09T02:57:12.641Z,5.63
2018-10-09T02:59:01.862Z,5.67
2018-10-09T03:01:12.144Z,5.74
2018-10-09T03:03:02.121Z,5.79
2018-10-09T03:04:44.311Z,5.78
2018-10-09T03:06:22.425Z,5.82
2018-10-09T03:08:02.591Z,5.73
2018-10-09T03:09:38.144Z,5.70
2018-10-09T03:11:14.367Z,5.67
2018-10-09T03:12:50.145Z,5.67
2018-10-09T03:14:32.056Z,5.64
2018-10-09T03:16:08.191Z,5.59
2018-10-09T03:17:44.608Z,5.55
2018-10-09T03:19:22.940Z,5.54
2018-10-09T03:21:01.245Z,5.64
2018-10-09T03:22:39.820Z,5.64
2018-10-09T03:24:51.175Z,5.66
2018-10-09T03:26:35.753Z,5.62
2018-10-09T03:28:13.304Z,5.58
2018-10-09T03:29:51.074Z,5.55
2018-10-09T03:31:26.336Z,5.57
2018-10-09T03:33:03.810Z,5.63
2018-10-09T03:34:39.705Z,5.88
2018-10-09T03:36:21.686Z,5.73
2018-10-09T03:37:58.934Z,5.70
2018-10-09T03:39:33.935Z,5.82
2018-10-09T03:41:09.629Z,5.91
2018-10-09T03:42:46.059Z,6.09
2018-10-09T03:44:22.970Z,6.16
2018-10-09T03:46:00.970Z,6.19
2018-10-09T03:47:36.196Z,6.28
2018-10-09T03:49:14.767Z,6.42
2018-10-09T03:50:51.901Z,6.50
2018-10-09T03:52:28.416Z,6.56
2018-10-09T03:54:04.565Z,6.57
2018-10-09T03:55:42.671Z,6.60
2018-10-09T03:57:19.633Z,6.62
2018-10-09T03:58:56.920Z,6.64
2018-10-09T04:00:34.072Z,6.66
2018-10-09T04:02:09.306Z,6.73
2018-10-09T04:03:44.418Z,6.72
2018-10-09T04:05:20.504Z,6.80
2018-10-09T04:06:56.347Z,6.82
2018-10-09T04:08:32.654Z,6.79
2018-10-09T04:10:08.882Z,6.89
2018-10-09T04:11:48.902Z,6.91
2018-10-09T04:13:23.964Z,6.97
2018-10-09T04:14:59.063Z,6.99
2018-10-09T04:16:35.296Z,6.94
2018-10-09T04:18:10.739Z,7.03
2018-10-09T04:19:46.889Z,7.10
2018-10-09T04:21:22.323Z,7.13
2018-10-09T04:22:58.482Z,7.17
2018-10-09T04:24:33.949Z,7.16
2018-10-09T04:26:10.159Z,7.17
2018-10-09T04:27:46.033Z,7.19
2018-10-09T04:29:21.062Z,7.21
2018-10-09T04:30:56.965Z,7.14
2018-10-09T04:32:32.141Z,7.12
2018-10-09T04:34:07.884Z,7.10
2018-10-09T04:35:46.251Z,7.08
2018-10-09T04:37:21.578Z,7.11
2018-10-09T04:38:56.499Z,7.06
2018-10-09T04:40:31.867Z,7.09
2018-10-09T04:42:07.598Z,7.10
2018-10-09T04:43:50.110Z,7.07
2018-10-09T04:45:31.437Z,7.09
2018-10-09T04:47:07.785Z,7.06
2018-10-09T04:48:49.147Z,7.06
2018-10-09T04:50:25.083Z,7.09
2018-10-09T04:52:00.513Z,7.04
2018-10-09T04:53:38.788Z,7.02
2018-10-09T04:55:14.493Z,6.97
2018-10-09T04:56:50.184Z,6.95
2018-10-09T04:58:26.248Z,6.94
2018-10-09T05:00:03.480Z,6.90
2018-10-09T05:01:39.086Z,6.88
2018-10-09T05:03:14.517Z,6.86
2018-10-09T05:04:50.991Z,6.84
2018-10-09T05:06:27.228Z,6.84
2018-10-09T05:08:02.434Z,6.83
2018-10-09T05:09:37.960Z,6.84
2018-10-09T05:11:13.446Z,6.81
2018-10-09T05:12:48.851Z,6.86
2018-10-09T05:14:24.823Z,6.83
2018-10-09T05:16:00.060Z,6.81
2018-10-09T05:17:35.787Z,6.82
2018-10-09T05:19:12.527Z,6.84
2018-10-09T05:20:48.707Z,6.82
2018-10-09T05:22:23.827Z,6.83
2018-10-09T05:24:00.134Z,6.85
2018-10-09T05:25:36.362Z,6.86
2018-10-09T05:27:12.495Z,6.86
2018-10-09T05:28:47.930Z,6.82
2018-10-09T05:30:23.404Z,6.77
2018-10-09T05:32:01.618Z,6.77
2018-10-09T05:33:37.241Z,6.80
2018-10-09T05:35:12.631Z,6.83
2018-10-09T05:36:48.042Z,6.80
2018-10-09T05:38:23.078Z,6.83
2018-10-09T05:39:58.147Z,6.87
2018-10-09T05:41:33.535Z,6.86
2018-10-09T05:43:09.055Z,6.87
2018-10-09T05:44:44.075Z,6.86
2018-10-09T05:46:19.154Z,6.83
2018-10-09T05:47:55.326Z,6.80
2018-10-09T05:49:31.860Z,6.82
2018-10-09T05:51:06.821Z,6.74
2018-10-09T05:52:42.127Z,6.71
2018-10-09T05:54:18.692Z,6.64
2018-10-09T05:55:56.723Z,6.61
2018-10-09T05:57:35.009Z,6.54
2018-10-09T05:59:11.474Z,6.59
2018-10-09T06:00:48.065Z,6.59
2018-10-09T06:02:23.399Z,6.63
2018-10-09T06:04:02.049Z,6.65
2018-10-09T06:05:39.530Z,6.85
2018-10-09T06:07:14.841Z,6.92
2018-10-09T06:08:50.975Z,7.08
2018-10-09T06:10:27.287Z,7.15
2018-10-09T06:12:05.396Z,7.26
2018-10-09T06:13:42.758Z,7.34
2018-10-09T06:15:21.112Z,7.43
2018-10-09T06:16:57.804Z,7.50
2018-10-09T06:18:34.220Z,7.54
2018-10-09T06:20:09.754Z,7.57
2018-10-09T06:21:44.809Z,7.68
2018-10-09T06:23:22.250Z,7.73
2018-10-09T06:25:06.339Z,7.81
2018-10-09T06:26:49.802Z,7.78
2018-10-09T06:28:49.365Z,7.73
2018-10-09T06:30:25.525Z,7.81
2018-10-09T06:32:00.670Z,7.90
2018-10-09T06:33:36.241Z,7.96
2018-10-09T06:35:12.443Z,8.10
2018-10-09T06:36:47.857Z,8.17
2018-10-09T06:38:28.808Z,8.23
2018-10-09T06:40:05.306Z,8.33
2018-10-09T06:41:42.325Z,8.41
2018-10-09T06:43:18.566Z,8.51
2018-10-09T06:45:09.170Z,8.60
2018-10-09T06:46:45.247Z,8.60
2018-10-09T06:48:21.182Z,8.67
2018-10-09T06:49:56.902Z,8.72
2018-10-09T06:51:33.934Z,8.76
2018-10-09T06:53:09.984Z,8.80
2018-10-09T06:54:45.251Z,8.83
2018-10-09T06:56:20.625Z,8.83
2018-10-09T06:57:55.765Z,8.91
2018-10-09T06:59:31.671Z,8.94
2018-10-09T07:01:07.069Z,9.01
2018-10-09T07:02:43.029Z,9.08
2018-10-09T07:04:18.370Z,9.06
2018-10-09T07:05:54.214Z,9.15
2018-10-09T07:07:31.877Z,9.18
2018-10-09T07:09:16.059Z,9.31
2018-10-09T07:10:51.343Z,9.37
2018-10-09T07:12:27.426Z,9.40
2018-10-09T07:14:04.097Z,9.53
2018-10-09T07:15:41.639Z,9.60
2018-10-09T07:17:17.657Z,9.68
2018-10-09T07:18:53.822Z,9.81
2018-10-09T07:20:29.697Z,9.96
2018-10-09T07:22:06.579Z,10.02
2018-10-09T07:23:42.494Z,10.15
2018-10-09T07:25:17.566Z,10.13
2018-10-09T07:26:53.201Z,10.15
2018-10-09T07:28:29.588Z,10.21
2018-10-09T07:30:06.158Z,10.29
2018-10-09T07:31:41.385Z,10.39
2018-10-09T07:33:17.132Z,10.46
2018-10-09T07:34:52.922Z,10.62
2018-10-09T07:36:29.752Z,10.73
2018-10-09T07:38:05.772Z,10.89
2018-10-09T07:39:41.494Z,10.99
2018-10-09T07:41:17.641Z,11.07
2018-10-09T07:42:53.477Z,11.23
2018-10-09T07:44:28.929Z,11.32
2018-10-09T07:46:05.402Z,11.44
2018-10-09T07:47:42.213Z,11.55
2018-10-09T07:49:19.846Z,11.65
2018-10-09T07:50:55.905Z,11.73
2018-10-09T07:52:31.261Z,11.84
2018-10-09T07:54:07.433Z,11.99
2018-10-09T07:55:43.383Z,12.10
2018-10-09T07:57:19.855Z,12.22
2018-10-09T07:58:56.678Z,12.36
2018-10-09T08:00:33.129Z,12.44
2018-10-09T08:02:12.727Z,12.57
2018-10-09T08:03:49.162Z,12.69
2018-10-09T08:05:24.388Z,12.70
2018-10-09T08:06:59.946Z,12.84
2018-10-09T08:08:36.651Z,13.01
2018-10-09T08:10:12.635Z,13.12
2018-10-09T08:11:56.569Z,13.24
2018-10-09T08:13:33.427Z,13.50
2018-10-09T08:15:09.150Z,13.66
2018-10-09T08:16:47.851Z,13.90
2018-10-09T08:18:25.465Z,13.96
2018-10-09T08:20:02.339Z,14.02
2018-10-09T08:21:38.054Z,14.24
2018-10-09T08:23:15.391Z,14.29
2018-10-09T08:24:50.968Z,14.32
2018-10-09T08:26:27.719Z,14.17
2018-10-09T08:28:03.662Z,14.08
2018-10-09T08:29:40.135Z,14.12
2018-10-09T08:31:16.569Z,14.20
2018-10-09T08:32:52.947Z,14.10
2018-10-09T08:34:30.467Z,14.06
2018-10-09T08:36:09.013Z,14.06
2018-10-09T08:37:45.473Z,13.93
2018-10-09T08:39:20.978Z,14.07
2018-10-09T08:41:00.053Z,14.09
2018-10-09T08:42:38.676Z,14.10
2018-10-09T08:44:15.483Z,14.08
2018-10-09T08:45:53.481Z,14.04
2018-10-09T08:47:29.118Z,14.12
2018-10-09T08:49:04.710Z,14.11
2018-10-09T08:50:41.394Z,14.07
2018-10-09T08:52:18.874Z,14.16
2018-10-09T08:53:54.161Z,14.29
2018-10-09T08:55:33.306Z,14.44
2018-10-09T08:57:08.802Z,14.58
2018-10-09T08:58:45.901Z,14.83
2018-10-09T09:00:21.765Z,14.83
2018-10-09T09:01:59.045Z,14.91
2018-10-09T09:03:34.389Z,15.22
2018-10-09T09:05:12.686Z,15.37
2018-10-09T09:06:48.225Z,15.63
2018-10-09T09:08:23.455Z,15.57
2018-10-09T09:10:00.612Z,15.50
2018-10-09T09:11:37.458Z,15.63
2018-10-09T09:13:14.463Z,15.63
2018-10-09T09:14:54.102Z,15.82
2018-10-09T09:16:33.616Z,15.93
2018-10-09T09:18:09.579Z,16.08
2018-10-09T09:19:47.925Z,16.32
2018-10-09T09:21:27.546Z,16.28
2018-10-09T09:23:03.508Z,16.53
2018-10-09T09:24:39.154Z,16.54
2018-10-09T09:26:15.540Z,16.22
2018-10-09T09:27:51.292Z,16.48
2018-10-09T09:29:26.416Z,16.42
2018-10-09T09:31:02.981Z,16.46
2018-10-09T09:32:38.799Z,16.65
2018-10-09T09:34:14.302Z,16.78
2018-10-09T09:35:49.569Z,16.93
2018-10-09T09:37:25.273Z,17.18
2018-10-09T09:39:02.549Z,17.49
2018-10-09T09:40:38.861Z,17.73
2018-10-09T09:42:16.143Z,17.55
2018-10-09T09:43:54.126Z,17.60
2018-10-09T09:45:30.335Z,17.79
2018-10-09T09:47:06.036Z,17.85
2018-10-09T09:48:43.054Z,18.10
2018-10-09T09:50:20.176Z,18.15
2018-10-09T09:51:56.728Z,18.21
2018-10-09T09:53:34.878Z,18.35
2018-10-09T09:55:10.567Z,18.54
2018-10-09T09:56:46.096Z,18.50
2018-10-09T09:58:24.208Z,18.58
2018-10-09T10:00:00.276Z,18.72
2018-10-09T10:01:41.718Z,18.82
2018-10-09T10:03:30.841Z,18.88
2018-10-09T10:05:10.350Z,19.02
2018-10-09T10:06:47.351Z,19.04
2018-10-09T10:08:32.666Z,18.91
2018-10-09T10:10:08.565Z,19.13
2018-10-09T10:11:45.541Z,19.08
2018-10-09T10:13:23.962Z,19.14
2018-10-09T10:15:00.096Z,19.38
2018-10-09T10:16:36.239Z,19.39
2018-10-09T10:18:11.579Z,19.55
2018-10-09T10:19:47.091Z,19.87
2018-10-09T10:21:23.542Z,19.96
2018-10-09T10:23:00.143Z,19.93
2018-10-09T10:24:36.457Z,20.13
2018-10-09T10:26:14.441Z,20.24
2018-10-09T10:27:49.654Z,20.27
2018-10-09T10:29:26.062Z,20.45
2018-10-09T10:31:01.320Z,20.32
2018-10-09T10:32:37.187Z,20.56
2018-10-09T10:34:13.961Z,20.64
2018-10-09T10:35:50.696Z,20.60
2018-10-09T10:37:26.185Z,20.59
2018-10-09T10:39:02.165Z,20.57
2018-10-09T10:40:50.049Z,20.21
2018-10-09T10:44:30.936Z,20.27
2018-10-09T10:46:07.949Z,20.14
2018-10-09T10:47:47.530Z,19.94
2018-10-09T10:49:25.084Z,19.60
2018-10-09T10:51:01.475Z,19.75
2018-10-09T10:52:40.428Z,19.82
2018-10-09T10:54:16.869Z,19.81
2018-10-09T10:55:52.611Z,19.86
2018-10-09T10:57:29.514Z,20.04
2018-10-09T10:59:05.484Z,19.96
2018-10-09T11:00:42.754Z,20.08
2018-10-09T11:02:20.029Z,19.89
2018-10-09T11:03:57.801Z,20.15
2018-10-09T11:05:33.544Z,20.49
2018-10-09T11:07:14.426Z,20.77
2018-10-09T11:08:56.653Z,20.82
2018-10-09T11:10:34.598Z,20.74
2018-10-09T11:12:11.080Z,20.64
2018-10-09T11:13:48.969Z,20.68
2018-10-09T11:15:26.281Z,20.53
2018-10-09T11:17:03.427Z,20.12
2018-10-09T11:18:45.419Z,20.44
2018-10-09T11:20:25.397Z,20.12
2018-10-09T11:22:02.333Z,20.44
2018-10-09T11:23:41.878Z,20.23
2018-10-09T11:25:20.357Z,20.16
2018-10-09T11:26:57.194Z,20.01
2018-10-09T11:28:38.147Z,20.20
2018-10-09T11:30:22.979Z,20.18
2018-10-09T11:32:06.412Z,20.39
2018-10-09T11:33:47.814Z,20.62
2018-10-09T11:35:26.226Z,20.35
2018-10-09T11:37:03.285Z,20.14
2018-10-09T11:38:40.726Z,20.26
2018-10-09T11:40:20.447Z,20.01
2018-10-09T11:42:00.468Z,20.03
2018-10-09T11:43:40.766Z,19.98
2018-10-09T11:45:23.719Z,20.02
2018-10-09T11:47:02.381Z,20.09
2018-10-09T11:48:45.202Z,20.12
2018-10-09T11:50:21.392Z,20.35
2018-10-09T11:52:01.322Z,20.56
2018-10-09T11:53:40.132Z,20.70
2018-10-09T11:55:17.006Z,20.67
2018-10-09T11:56:52.292Z,20.68
2018-10-09T11:58:31.533Z,20.92
2018-10-09T12:00:10.424Z,21.17
2018-10-09T12:01:50.136Z,21.04
2018-10-09T12:03:41.613Z,20.89
2018-10-09T12:05:24.024Z,21.01
2018-10-09T12:07:01.272Z,21.21
2018-10-09T12:08:37.035Z,21.35
2018-10-09T12:10:13.855Z,21.23
2018-10-09T12:11:49.884Z,21.32
2018-10-09T12:13:27.729Z,21.33
2018-10-09T12:15:05.671Z,21.62
2018-10-09T12:16:41.964Z,21.43
2018-10-09T12:18:20.345Z,21.59
2018-10-09T12:20:02.401Z,21.81
2018-10-09T12:21:38.939Z,21.25
2018-10-09T12:23:15.371Z,21.52
2018-10-09T12:24:54.860Z,21.62
2018-10-09T12:26:33.675Z,21.42
2018-10-09T12:28:11.112Z,21.66
2018-10-09T12:29:48.254Z,21.16
2018-10-09T12:31:25.144Z,21.53
2018-10-09T12:33:01.326Z,21.24
2018-10-09T12:34:38.725Z,21.19
2018-10-09T12:36:15.184Z,21.13
2018-10-09T12:37:52.210Z,21.22
2018-10-09T12:39:30.798Z,21.13
2018-10-09T12:41:08.223Z,20.90
2018-10-09T12:42:44.601Z,20.57
2018-10-09T12:44:23.139Z,20.38
2018-10-09T12:45:58.808Z,20.32
2018-10-09T12:47:33.815Z,20.10
2018-10-09T12:49:10.049Z,19.85
2018-10-09T12:50:48.533Z,19.60
2018-10-09T12:52:24.598Z,19.60
2018-10-09T12:54:00.176Z,19.37
2018-10-09T12:55:35.365Z,19.49
2018-10-09T12:57:11.178Z,19.40
2018-10-09T12:58:48.048Z,19.15
2018-10-09T13:00:26.717Z,19.18
2018-10-09T13:02:03.370Z,19.12
2018-10-09T13:03:43.325Z,19.18
2018-10-09T13:05:19.235Z,19.27
2018-10-09T13:06:55.789Z,19.18
2018-10-09T13:08:33.557Z,19.32
2018-10-09T13:10:12.407Z,19.28
2018-10-09T13:12:05.602Z,19.38
2018-10-09T13:13:41.919Z,19.37
2018-10-09T13:15:22.500Z,19.31
2018-10-09T13:16:59.093Z,19.36
2018-10-09T13:18:37.215Z,19.32
2018-10-09T13:20:15.321Z,19.45
2018-10-09T13:21:52.734Z,19.53
2018-10-09T13:23:31.582Z,19.61
2018-10-09T13:25:08.412Z,19.58
2018-10-09T13:26:43.787Z,19.62
2018-10-09T13:28:22.784Z,19.73
2018-10-09T13:30:07.793Z,19.74
2018-10-09T13:31:46.456Z,19.81
2018-10-09T13:33:22.439Z,19.88
2018-10-09T13:35:01.328Z,19.98
2018-10-09T13:36:38.636Z,19.94
2018-10-09T13:38:14.533Z,20.04
2018-10-09T13:39:50.843Z,20.09
2018-10-09T13:41:27.922Z,20.13
2018-10-09T13:43:05.120Z,20.26
2018-10-09T13:44:43.711Z,20.24
2018-10-09T13:46:21.064Z,20.37
2018-10-09T13:47:58.678Z,20.43
2018-10-09T13:49:35.627Z,20.36
2018-10-09T13:51:12.201Z,20.46
2018-10-09T13:52:51.467Z,20.42
2018-10-09T13:54:32.205Z,20.45
2018-10-09T13:56:10.205Z,20.48
2018-10-09T13:57:47.735Z,20.53
2018-10-09T13:59:27.360Z,20.65
2018-10-09T14:01:05.858Z,20.73
2018-10-09T14:02:42.742Z,20.74
2018-10-09T14:04:24.997Z,20.74
2018-10-09T14:06:00.798Z,20.69
2018-10-09T14:07:37.745Z,20.65
2018-10-09T14:09:15.272Z,20.59
2018-10-09T14:10:51.724Z,20.56
2018-10-09T14:12:28.303Z,20.43
2018-10-09T14:14:05.315Z,20.24
2018-10-09T14:15:41.802Z,20.15
2018-10-09T14:17:18.041Z,20.14
2018-10-09T14:18:53.695Z,20.09
2018-10-09T14:20:29.334Z,19.99
2018-10-09T14:22:04.949Z,19.92
2018-10-09T14:23:40.637Z,19.99
2018-10-09T14:25:16.360Z,20.02
2018-10-09T14:26:53.222Z,19.92
2018-10-09T14:28:28.563Z,19.83
2018-10-09T14:30:09.328Z,19.82
2018-10-09T14:31:45.555Z,19.74
2018-10-09T14:33:21.150Z,19.72
2018-10-09T14:34:56.463Z,19.76
2018-10-09T14:36:32.991Z,19.75
2018-10-09T14:38:09.595Z,19.73
2018-10-09T14:39:48.349Z,19.76
2018-10-09T14:41:27.261Z,19.64
2018-10-09T14:43:10.272Z,19.70
2018-10-09T14:44:46.404Z,19.63
2018-10-09T14:46:22.826Z,19.59
2018-10-09T14:47:59.235Z,19.58
2018-10-09T14:49:35.378Z,19.54
2018-10-09T14:51:11.577Z,19.39
2018-10-09T14:52:47.493Z,19.41
2018-10-09T14:54:24.260Z,19.35
2018-10-09T14:56:00.369Z,19.22
2018-10-09T14:57:37.396Z,19.16
2018-10-09T14:59:14.116Z,19.19
2018-10-09T15:00:54.704Z,19.14
2018-10-09T15:02:29.994Z,19.04
2018-10-09T15:04:06.848Z,19.04
2018-10-09T15:05:43.169Z,18.89
2018-10-09T15:07:25.718Z,18.81
2018-10-09T15:09:08.531Z,18.80
2018-10-09T15:10:44.813Z,18.77
2018-10-09T15:12:23.849Z,18.72
2018-10-09T15:13:59.252Z,18.65
2018-10-09T15:17:36.709Z,18.42
2018-10-09T15:19:12.927Z,18.40
2018-10-09T15:20:48.943Z,18.35
2018-10-09T15:22:25.729Z,18.28
2018-10-09T15:24:02.901Z,18.20
2018-10-09T15:25:40.047Z,18.15
2018-10-09T15:27:15.536Z,18.10
2018-10-09T15:28:50.784Z,18.01
2018-10-09T15:30:28.358Z,17.93
2018-10-09T15:32:05.873Z,17.89
2018-10-09T15:33:43.013Z,17.83
2018-10-09T15:35:19.024Z,17.76
2018-10-09T15:36:55.692Z,17.74
2018-10-09T15:38:33.526Z,17.68
2018-10-09T15:40:09.917Z,17.62
2018-10-09T15:41:46.022Z,17.61
2018-10-09T15:43:25.139Z,17.57
2018-10-09T15:45:00.514Z,17.60
2018-10-09T15:46:38.481Z,17.58
2018-10-09T15:48:18.819Z,17.52
2018-10-09T15:49:55.966Z,17.48
2018-10-09T15:51:38.034Z,17.42
2018-10-09T15:53:19.279Z,17.42
2018-10-09T15:54:58.488Z,17.39
2018-10-09T15:56:37.654Z,17.33
2018-10-09T15:58:15.683Z,17.26
2018-10-09T15:59:52.559Z,17.19
2018-10-09T16:01:31.575Z,17.17
2018-10-09T16:03:09.308Z,17.15
2018-10-09T16:04:46.311Z,17.08
2018-10-09T16:06:27.279Z,17.00
2018-10-09T16:08:05.587Z,16.96
2018-10-09T16:09:42.422Z,16.89
2018-10-09T16:11:20.555Z,16.78
2018-10-09T16:12:58.730Z,16.74
2018-10-09T16:14:37.519Z,16.66
2018-10-09T16:16:15.533Z,16.59
2018-10-09T16:17:52.088Z,16.46
2018-10-09T16:19:30.420Z,16.44
2018-10-09T16:21:08.785Z,16.36
2018-10-09T16:22:47.540Z,16.31
2018-10-09T16:24:27.417Z,16.21
2018-10-09T16:26:05.761Z,16.08
2018-10-09T16:27:43.032Z,16.01
2018-10-09T16:29:23.352Z,15.95
2018-10-09T16:31:02.765Z,15.82
2018-10-09T16:32:45.303Z,15.70
2018-10-09T16:34:22.230Z,15.64
2018-10-09T16:36:16.453Z,15.56
2018-10-09T16:37:57.969Z,15.48
2018-10-09T16:39:40.598Z,15.37
2018-10-09T16:41:20.775Z,15.26
2018-10-09T16:42:59.324Z,15.16
2018-10-09T16:44:38.821Z,15.12
2018-10-09T16:46:19.355Z,14.99
2018-10-09T16:47:56.226Z,14.75
2018-10-09T16:49:34.057Z,14.61
2018-10-09T16:51:09.531Z,14.47
2018-10-09T16:52:45.890Z,14.43
2018-10-09T16:54:22.179Z,14.30
2018-10-09T16:55:58.127Z,14.22
2018-10-09T16:57:34.392Z,14.10
2018-10-09T16:59:11.172Z,13.97
2018-10-09T17:00:47.945Z,13.85
2018-10-09T17:02:25.295Z,13.72
2018-10-09T17:04:01.305Z,13.68
2018-10-09T17:05:38.704Z,13.64
2018-10-09T17:07:14.603Z,13.51
2018-10-09T17:08:52.482Z,13.53
2018-10-09T17:10:30.625Z,13.51
2018-10-09T17:12:07.621Z,13.55
2018-10-09T17:13:44.623Z,13.55
2018-10-09T17:15:22.144Z,13.46
2018-10-09T17:17:00.196Z,13.43
2018-10-09T17:18:38.406Z,13.43
2018-10-09T17:20:16.389Z,13.40
2018-10-09T17:21:53.112Z,13.28
2018-10-09T17:23:30.793Z,13.21
2018-10-09T17:25:16.563Z,13.17
2018-10-09T17:26:53.165Z,13.07
2018-10-09T17:28:32.693Z,13.01
2018-10-09T17:30:11.493Z,12.87
2018-10-09T17:31:51.168Z,12.71
2018-10-09T17:33:28.641Z,12.63
2018-10-09T17:35:08.042Z,12.59
2018-10-09T17:36:46.939Z,12.47
2018-10-09T17:38:25.243Z,12.39
2018-10-09T17:40:06.685Z,12.33
2018-10-09T17:41:44.049Z,12.35
2018-10-09T17:43:23.609Z,12.36
2018-10-09T17:45:09.370Z,12.31
2018-10-09T17:46:55.468Z,12.33
2018-10-09T17:48:47.386Z,12.17
2018-10-09T17:50:30.466Z,12.07
2018-10-09T17:52:07.166Z,11.97
2018-10-09T17:53:46.323Z,11.96
2018-10-09T17:55:23.762Z,11.95
2018-10-09T17:57:00.616Z,11.90
2018-10-09T17:58:43.337Z,11.80
2018-10-09T18:00:25.225Z,11.77
2018-10-09T18:02:02.791Z,11.75
2018-10-09T18:03:45.046Z,11.77
2018-10-09T18:05:24.879Z,11.68
2018-10-09T18:07:02.791Z,11.52
2018-10-09T18:08:43.329Z,11.43
2018-10-09T18:10:29.194Z,11.39
2018-10-09T18:12:11.265Z,11.33
2018-10-09T18:13:55.894Z,11.27
2018-10-09T18:15:38.371Z,11.27
2018-10-09T18:17:20.470Z,11.17
2018-10-09T18:19:10.874Z,11.13
2018-10-09T18:20:50.075Z,11.08
2018-10-09T18:22:34.995Z,11.01
2018-10-09T18:24:30.633Z,10.97
2018-10-09T18:26:12.431Z,10.94
2018-10-09T18:27:53.623Z,10.86
2018-10-09T18:29:40.716Z,10.84
2018-10-09T18:31:21.440Z,10.82
2018-10-09T18:33:04.796Z,10.93
2018-10-09T18:34:46.412Z,10.87
2018-10-09T18:36:30.594Z,11.02
2018-10-09T18:38:11.153Z,11.21
2018-10-09T18:39:47.637Z,11.34
2018-10-09T18:41:33.434Z,11.39
2018-10-09T18:43:14.285Z,11.42
2018-10-09T18:44:56.553Z,11.36
2018-10-09T18:46:36.979Z,11.37
2018-10-09T18:48:19.338Z,11.38
2018-10-09T18:50:02.425Z,11.37
2018-10-09T18:51:46.733Z,11.44
2018-10-09T18:53:28.882Z,11.47
2018-10-09T18:55:16.384Z,11.56
2018-10-09T18:56:56.845Z,11.61
2018-10-09T18:58:40.571Z,11.47
2018-10-09T19:00:29.748Z,11.44
2018-10-09T19:02:14.429Z,11.39
2018-10-09T19:03:56.760Z,11.35
2018-10-09T19:05:44.498Z,11.23
2018-10-09T19:07:22.764Z,11.23
2018-10-09T19:09:09.462Z,11.06
2018-10-09T19:10:53.006Z,10.91
2018-10-09T19:12:42.406Z,10.80
2018-10-09T19:14:37.935Z,10.70
2018-10-09T19:16:22.163Z,10.59
2018-10-09T19:18:05.405Z,10.51
2018-10-09T19:19:44.874Z,10.43
2018-10-09T19:21:26.493Z,10.36
2018-10-09T19:23:06.072Z,10.25
2018-10-09T19:25:01.913Z,10.17
2018-10-09T19:26:42.283Z,10.29
2018-10-09T19:28:23.924Z,10.46
2018-10-09T19:30:10.383Z,10.54
2018-10-09T19:31:53.057Z,10.68
2018-10-09T19:33:29.928Z,10.73
2018-10-09T19:35:05.515Z,10.75
2018-10-09T19:36:45.345Z,10.77
2018-10-09T19:38:23.162Z,10.84
2018-10-09T19:40:00.283Z,10.89
2018-10-09T19:41:36.862Z,10.92
2018-10-09T19:43:20.023Z,10.97
2018-10-09T19:44:59.801Z,11.03
2018-10-09T19:46:35.863Z,11.06
2018-10-09T19:48:16.511Z,11.06
2018-10-09T19:51:45.899Z,11.13
2018-10-09T19:53:25.421Z,11.18
2018-10-09T19:55:05.553Z,11.17
2018-10-09T19:56:43.487Z,11.32
2018-10-09T19:58:19.410Z,11.37
2018-10-09T19:59:59.614Z,11.41
2018-10-09T20:03:39.169Z,11.47
2018-10-09T20:05:23.208Z,11.55
2018-10-09T20:07:00.963Z,11.60
2018-10-09T20:08:49.912Z,11.65
2018-10-09T20:10:40.660Z,11.65
2018-10-09T20:12:26.796Z,11.71
2018-10-09T20:15:55.342Z,11.72
2018-10-09T20:17:34.672Z,11.73
2018-10-09T20:19:12.883Z,11.74
2018-10-09T20:20:49.990Z,11.73
2018-10-09T20:22:27.509Z,11.70
2018-10-09T20:24:04.687Z,11.64
2018-10-09T20:25:47.007Z,11.60
2018-10-09T20:27:24.668Z,11.55
2018-10-09T20:29:03.662Z,11.60
2018-10-09T20:30:45.962Z,11.61
2018-10-09T20:32:23.384Z,11.53
2018-10-09T20:34:06.984Z,11.49
2018-10-09T20:35:43.589Z,11.45
2018-10-09T20:37:21.565Z,11.45
2018-10-09T20:38:57.600Z,11.37
2018-10-09T20:40:33.703Z,11.32
2018-10-09T20:42:16.318Z,11.25
2018-10-09T20:43:53.357Z,11.18
2018-10-09T20:45:31.619Z,11.20
2018-10-09T20:47:09.432Z,11.15
2018-10-09T20:48:45.385Z,11.22
2018-10-09T20:50:27.043Z,11.27
2018-10-09T20:52:05.275Z,11.24
2018-10-09T20:53:42.775Z,11.22
2018-10-09T20:55:19.984Z,11.16
2018-10-09T20:56:59.678Z,11.17
2018-10-09T20:58:38.497Z,11.11
2018-10-09T21:00:21.533Z,11.06
2018-10-09T21:05:37.843Z,10.97
2018-10-09T21:07:16.035Z,10.99
2018-10-09T21:08:53.231Z,10.94
2018-10-09T21:11:35.693Z,10.93
2018-10-09T21:13:18.570Z,10.91
2018-10-09T21:15:07.944Z,10.93
2018-10-09T21:16:50.988Z,10.93
2018-10-09T21:20:14.964Z,11.02
2018-10-09T21:21:54.556Z,11.01
2018-10-09T21:23:32.649Z,11.03
2018-10-09T21:25:09.077Z,11.09
2018-10-09T21:26:49.507Z,11.06
2018-10-09T21:28:34.388Z,11.07
2018-10-09T21:30:16.058Z,11.17
2018-10-09T21:31:58.344Z,11.18
2018-10-09T21:33:43.350Z,11.21
2018-10-09T21:35:22.901Z,11.15
2018-10-09T21:37:16.171Z,11.20
2018-10-09T21:39:18.406Z,11.22
2018-10-09T21:41:00.278Z,11.22
2018-10-09T21:42:42.502Z,11.21
2018-10-09T21:44:28.823Z,11.23
2018-10-09T21:46:12.816Z,11.23
2018-10-09T21:47:56.749Z,11.29